クアラルンプール の空港の天気 - METARとTAF

クアラルンプール国際空港 ( WMKK / KUL ) - マレーシア スランゴール州セパン
飛行場実況気象(Metar)
観測時間01/20 09:00 MYT (01/20 01:00 UTC)
風向・風速静穏 0m/s
視程9000m
天気現象
少しの雲 雲底高度 520m
全天の8割程度の雲 雲底高度 4270m
全天の8割程度の雲 雲底高度 8230m
気温25℃
湿度94%
気圧1011hPa
METARWMKK 200100Z 00000KT 9000 FEW017CB BKN140 BKN270 25/24 Q1011 NOSIG
過去の天気等 Google飛行場航空写真 Wunderground天気予報

過去48時間のMETAR

飛行場予報(TAF)
発表時間: 1/20 07:00 MYT (1/19 23:00 UTC)
予報対象時間: 20日8時 MYT ~ 21日14時 MYT
風向・風速北東 3m/s
視程10km以上
少しの積乱雲 雲底高度 520m
全天の4割程度の雲 雲底高度 4,270m
全天の8割程度の雲 雲底高度 8,530m
20日8時 MYT ~ 20日12時 MYT に 確率 30% で一時的に
視程6,000m
天気現象弱い雷雨
少しの積乱雲 雲底高度 490m
全天の4割程度の雲 雲底高度 610m
20日14時 MYT ~ 20日18時 MYT に一時的に
視程4,000m
天気現象雷雨
少しの積乱雲 雲底高度 460m
全天の4割程度の雲 雲底高度 550m
TAF WMKK 192300Z 2000/2106 04005KT 9999 FEW017CB SCT140 BKN280
PROB30 TEMPO 2000/2004 6000 -TSRA FEW016CB SCT020
TEMPO 2006/2010 4000 TSRA FEW015CB SCT018